Rapports METAR des aéroports proches

 

LFSI - St. Dizier/Robin, France
Distance from station: SO 26km
Mise à jour: 22/07/2018 10:30
clair
clair
 Wind from ONO
Vent: ONO 7 km/h
Température: 23°C
Point de rosée: 15°C
Humidité: 61%
Baromètre: 1016 hPa
Résumé: clair
Visibility: greater than 10 km
2018/07/22 08:30 LFSI 220830Z AUTO 30004KT 210V340 CAVOK 23/15 Q1016
LFSO - Nancy/Ochey (faf, France
Distance from station: ESE 62km
Mise à jour: 22/07/2018 10:30
clair
clair
 Wind from ONO
Vent: ONO 11 km/h
Température: 21°C
Point de rosée: 14°C
Humidité: 64%
Baromètre: 1016 hPa
Résumé: clair
Visibility: greater than 10 km
2018/07/22 08:30 LFSO 220830Z AUTO 29006KT 240V330 CAVOK 21/14 Q1016
 
LFOK - Chalons/Vatry Fa, France
Distance from station: O 73km
Mise à jour: 22/07/2018 10:30
clair
clair
 Wind from N
Vent: N 9 km/h
Température: 22°C
Point de rosée: 15°C
Humidité: 65%
Baromètre: 1016 hPa
Résumé: clair
Visibility: greater than 10 km
2018/07/22 08:30 LFOK 220830Z AUTO 36005KT 310V060 CAVOK 22/15 Q1016 NOSIG
LFSN - Nancy/Essey, France
Distance from station: E 77km
Mise à jour: 22/07/2018 10:30
clair
clair
 Wind from NNO
Vent: NNO 9 km/h
Température: 21°C
Point de rosée: 15°C
Humidité: 69%
Baromètre: 1016 hPa
Résumé: clair
Visibility: greater than 10 km
2018/07/22 08:30 LFSN 220830Z AUTO 33005KT CAVOK 21/15 Q1016
 
LFJL - Metz-Nancy-Lorra, France
Distance from station: ENE 82km
Mise à jour: 22/07/2018 10:30
clair
clair
 Wind from NO
Vent: NO 11 km/h
Température: 21°C
Point de rosée: 14°C
Humidité: 64%
Baromètre: 1016 hPa
Résumé: clair
Visibility: greater than 10 km
2018/07/22 08:30 LFJL 220830Z AUTO 31006KT 260V340 CAVOK 21/14 Q1016 NOSIG
LFQA - Reims/Prunay, France
Distance from station: ONO 89km
Mise à jour: 22/07/2018 10:30
clair
clair
 Wind from NO
Vent: NO 7 km/h
Température: 20°C
Point de rosée: 13°C
Humidité: 64%
Baromètre: 1016 hPa
Résumé: clair
Visibility: greater than 10 km
2018/07/22 08:30 LFQA 220830Z AUTO 31004KT 270V340 CAVOK 20/13 Q1016
 
LFQB - Troyes/Barberey, France
Distance from station: OSO 99km
Mise à jour: 22/07/2018 10:30

 Wind from NO
Vent: NO 11 km/h
Température: 21°C
Point de rosée: 15°C
Humidité: 69%
Baromètre: 1016 hPa
Visibility: 10 km
2018/07/22 08:30 LFQB 220830Z AUTO 31006KT 280V340 9999 ////// 21/15 Q1016
ELLX - Luxembourg (aut), Luxembourg
Distance from station: NE 122km
Mise à jour: 22/07/2018 10:20
clair
clair
 Wind from N
Vent: N 13 km/h
Température: 20°C
Point de rosée: 12°C
Humidité: 60%
Baromètre: 1016 hPa
Résumé: clair
Visibility: greater than 10 km
2018/07/22 08:20 ELLX 220820Z 36007KT 320V050 CAVOK 20/12 Q1016 NOSIG